Airfield :
LOGIN :

Register | Disclaimer

   EN    FR    IT 

 










Legend :    VFR   Marginal VFR   IFR   Intensive IFR   Very Intensive IFR
Visi :
Ceiling :
>= 8 km
>= 3000ft
5 to 8 km
1000 to 3000 ft
1500m to 5 km
500 to 1000 ft
800 to 1500m
200 to 500 ft
< 800m
< 200 ft
Symbols :   Thunderstorms  Fog  Heavy snow  Heavy precipitations  Wind > 20 kt
SIGMETs :     Misc.  Thunderstorms  Icing  Turbulence  Mountain Waves  Volcanic Ashes







- Airport Elevation : 242 ft
- IATA code : DUB


EIDW - Dublin

CURRENT METAR :
  • 251200Z 01016KT 320V020 9999 VCSH FEW020CB SCT200 10/M03 Q1019 NOSIG

EXPIRED METARs :
  • 251130Z 33017KT 300V360 9999 VCSH FEW020CB SCT200 09/M01 Q1020 NOSIG
  • 251100Z 35015KT 9999 FEW024 BKN200 08/M01 Q1020 NOSIG
  • 251030Z 34015KT 300V010 9999 FEW024 SCT250 08/M00 Q1020 NOSIG
  • 251000Z 34017KT 310V010 9999 FEW024 08/M01 Q1020 NOSIG
  • 250930Z 34017KT 9999 FEW024 SCT250 08/01 Q1020 NOSIG

TAF TAF EIDW
Valid from the 25 at 12:00 until the 26 at 12:00 UTC


251100Z 2512/2612 34015KT 9999 FEW018 SCT030
TEMPO 2512/2518 35018G30KT
PROB30
TEMPO 2512/2518 -SHRAGS SCT012 SCT018CB
BECMG 2519/2521 34010KT
No reported NOTAMs for that airfield.



MET'MAP, your aeronautical weather chart ! - Copyright ORBIFLY December 2007 - Disclaimer

ORBIFLY MET'MAP TEAM :

Programming & Development : Alexandra Zaïnal
Concept & Development : Baudouin d'Aumeries
Co-Development & Prog : Marc-Olivier Méhu
Technical & hardware support : Manuel Goepfert

Contact : metmap@orbifly.com




SOURCES & CREDITS :

   NOAA